sensor_id;sensor_type;location;lat;lon;timestamp;temperature;humidity
16838;DHT22;19510;54.486;9.046;2022-11-15T06:24:00;6.80;99.90
16838;DHT22;19510;54.486;9.046;2022-11-15T06:26:26;6.90;99.90
16838;DHT22;19510;54.486;9.046;2022-11-15T06:28:54;6.90;99.90
16838;DHT22;19510;54.486;9.046;2022-11-15T06:31:20;6.90;99.90
16838;DHT22;19510;54.486;9.046;2022-11-15T06:33:46;6.90;99.90
16838;DHT22;19510;54.486;9.046;2022-11-15T06:36:13;7.00;99.90
16838;DHT22;19510;54.486;9.046;2022-11-15T06:38:41;7.00;99.90
16838;DHT22;19510;54.486;9.046;2022-11-15T06:41:09;7.00;99.90
16838;DHT22;19510;54.486;9.046;2022-11-15T06:43:35;7.10;99.90
16838;DHT22;19510;54.486;9.046;2022-11-15T06:46:03;7.10;99.90
16838;DHT22;19510;54.486;9.046;2022-11-15T06:48:30;7.10;99.90
16838;DHT22;19510;54.486;9.046;2022-11-15T06:50:57;7.10;99.90
16838;DHT22;19510;54.486;9.046;2022-11-15T06:53:27;7.10;99.90
16838;DHT22;19510;54.486;9.046;2022-11-15T06:55:53;7.20;99.90
16838;DHT22;19510;54.486;9.046;2022-11-15T06:58:20;7.20;99.90
16838;DHT22;19510;54.486;9.046;2022-11-15T07:00:46;7.30;99.90
16838;DHT22;19510;54.486;9.046;2022-11-15T07:03:12;7.30;99.90
16838;DHT22;19510;54.486;9.046;2022-11-15T07:05:38;7.30;99.90
16838;DHT22;19510;54.486;9.046;2022-11-15T07:08:04;7.40;99.90
16838;DHT22;19510;54.486;9.046;2022-11-15T07:10:30;7.40;99.90
16838;DHT22;19510;54.486;9.046;2022-11-15T07:12:56;7.40;99.90
16838;DHT22;19510;54.486;9.046;2022-11-15T07:15:23;7.50;99.90
16838;DHT22;19510;54.486;9.046;2022-11-15T07:17:49;7.50;99.90
16838;DHT22;19510;54.486;9.046;2022-11-15T07:20:16;7.50;99.90
16838;DHT22;19510;54.486;9.046;2022-11-15T07:22:43;7.50;99.90
16838;DHT22;19510;54.486;9.046;2022-11-15T07:25:11;7.60;99.90
16838;DHT22;19510;54.486;9.046;2022-11-15T07:27:37;7.60;99.90
16838;DHT22;19510;54.486;9.046;2022-11-15T07:30:04;7.60;99.90
16838;DHT22;19510;54.486;9.046;2022-11-15T07:32:30;7.70;99.90
16838;DHT22;19510;54.486;9.046;2022-11-15T07:34:56;7.70;99.90
16838;DHT22;19510;54.486;9.046;2022-11-15T07:37:22;7.70;99.90
16838;DHT22;19510;54.486;9.046;2022-11-15T07:39:48;7.70;99.90
16838;DHT22;19510;54.486;9.046;2022-11-15T07:42:16;7.70;99.90
16838;DHT22;19510;54.486;9.046;2022-11-15T07:45:02;7.80;99.90
16838;DHT22;19510;54.486;9.046;2022-11-15T07:47:28;7.80;99.90
16838;DHT22;19510;54.486;9.046;2022-11-15T07:49:54;7.80;99.90
16838;DHT22;19510;54.486;9.046;2022-11-15T07:52:20;7.80;99.90
16838;DHT22;19510;54.486;9.046;2022-11-15T07:54:46;7.90;99.90
16838;DHT22;19510;54.486;9.046;2022-11-15T07:57:11;7.90;99.90
16838;DHT22;19510;54.486;9.046;2022-11-15T07:59:37;7.90;99.90
16838;DHT22;19510;54.486;9.046;2022-11-15T08:02:03;7.90;99.90
16838;DHT22;19510;54.486;9.046;2022-11-15T08:04:28;7.90;99.90
16838;DHT22;19510;54.486;9.046;2022-11-15T08:06:54;8.00;99.90
16838;DHT22;19510;54.486;9.046;2022-11-15T08:09:20;8.00;99.90
16838;DHT22;19510;54.486;9.046;2022-11-15T08:11:45;8.00;99.90
16838;DHT22;19510;54.486;9.046;2022-11-15T08:14:13;8.10;99.90
16838;DHT22;19510;54.486;9.046;2022-11-15T08:16:39;8.10;99.90
16838;DHT22;19510;54.486;9.046;2022-11-15T08:19:05;8.10;99.90
16838;DHT22;19510;54.486;9.046;2022-11-15T08:21:30;8.10;99.90
16838;DHT22;19510;54.486;9.046;2022-11-15T08:23:56;8.20;99.90
16838;DHT22;19510;54.486;9.046;2022-11-15T08:26:22;8.20;99.90
16838;DHT22;19510;54.486;9.046;2022-11-15T08:28:47;8.30;99.90
16838;DHT22;19510;54.486;9.046;2022-11-15T08:31:15;8.30;99.90
16838;DHT22;19510;54.486;9.046;2022-11-15T08:33:43;8.30;99.90
16838;DHT22;19510;54.486;9.046;2022-11-15T08:36:13;8.40;99.90
16838;DHT22;19510;54.486;9.046;2022-11-15T08:38:40;8.40;99.90
16838;DHT22;19510;54.486;9.046;2022-11-15T08:41:05;8.40;99.90
16838;DHT22;19510;54.486;9.046;2022-11-15T08:43:34;8.50;99.90
16838;DHT22;19510;54.486;9.046;2022-11-15T08:46:03;8.50;99.90
16838;DHT22;19510;54.486;9.046;2022-11-15T08:48:29;8.60;99.90
16838;DHT22;19510;54.486;9.046;2022-11-15T08:50:57;8.60;99.90
16838;DHT22;19510;54.486;9.046;2022-11-15T08:53:23;8.70;99.90
16838;DHT22;19510;54.486;9.046;2022-11-15T08:55:51;8.70;99.90
16838;DHT22;19510;54.486;9.046;2022-11-15T08:58:17;8.70;99.90
16838;DHT22;19510;54.486;9.046;2022-11-15T09:00:43;8.70;99.90
16838;DHT22;19510;54.486;9.046;2022-11-15T09:03:08;8.70;99.90
16838;DHT22;19510;54.486;9.046;2022-11-15T09:05:36;8.80;99.90
16838;DHT22;19510;54.486;9.046;2022-11-15T09:08:03;8.80;99.90
16838;DHT22;19510;54.486;9.046;2022-11-15T09:10:29;8.80;99.90
16838;DHT22;19510;54.486;9.046;2022-11-15T09:12:57;8.80;99.90
16838;DHT22;19510;54.486;9.046;2022-11-15T09:15:22;8.90;99.90
16838;DHT22;19510;54.486;9.046;2022-11-15T09:17:48;8.90;99.90
16838;DHT22;19510;54.486;9.046;2022-11-15T09:20:14;8.90;99.90
16838;DHT22;19510;54.486;9.046;2022-11-15T09:22:40;9.00;99.90
16838;DHT22;19510;54.486;9.046;2022-11-15T09:25:06;9.00;99.90
16838;DHT22;19510;54.486;9.046;2022-11-15T09:27:32;9.10;99.90
16838;DHT22;19510;54.486;9.046;2022-11-15T09:29:58;9.00;99.90
16838;DHT22;19510;54.486;9.046;2022-11-15T09:32:28;9.10;99.90
16838;DHT22;19510;54.486;9.046;2022-11-15T09:34:54;9.10;99.90
16838;DHT22;19510;54.486;9.046;2022-11-15T09:37:22;9.10;99.90
16838;DHT22;19510;54.486;9.046;2022-11-15T09:39:47;9.10;99.90
16838;DHT22;19510;54.486;9.046;2022-11-15T09:42:38;9.10;99.90
16838;DHT22;19510;54.486;9.046;2022-11-15T09:48:12;9.10;99.90
16838;DHT22;19510;54.486;9.046;2022-11-15T09:50:48;9.20;99.90
16838;DHT22;19510;54.486;9.046;2022-11-15T09:56:00;9.20;99.90
16838;DHT22;19510;54.486;9.046;2022-11-15T10:01:08;9.20;99.90
16838;DHT22;19510;54.486;9.046;2022-11-15T10:03:40;9.30;99.90
16838;DHT22;19510;54.486;9.046;2022-11-15T10:06:23;9.30;99.90
16838;DHT22;19510;54.486;9.046;2022-11-15T10:11:56;9.30;99.90
16838;DHT22;19510;54.486;9.046;2022-11-15T10:14:24;9.30;99.90
16838;DHT22;19510;54.486;9.046;2022-11-15T10:20:26;9.40;99.90
16838;DHT22;19510;54.486;9.046;2022-11-15T10:23:00;9.40;99.90
16838;DHT22;19510;54.486;9.046;2022-11-15T10:25:27;9.40;99.90
16838;DHT22;19510;54.486;9.046;2022-11-15T10:28:04;9.40;99.90
16838;DHT22;19510;54.486;9.046;2022-11-15T10:30:40;9.40;99.90
16838;DHT22;19510;54.486;9.046;2022-11-15T10:33:31;9.40;99.90
16838;DHT22;19510;54.486;9.046;2022-11-15T10:36:19;9.40;99.90
16838;DHT22;19510;54.486;9.046;2022-11-15T10:41:15;9.40;99.90
16838;DHT22;19510;54.486;9.046;2022-11-15T10:43:41;9.40;99.90
16838;DHT22;19510;54.486;9.046;2022-11-15T10:46:22;9.40;99.90
16838;DHT22;19510;54.486;9.046;2022-11-15T10:48:48;9.50;99.90
16838;DHT22;19510;54.486;9.046;2022-11-15T10:51:46;9.40;99.90
16838;DHT22;19510;54.486;9.046;2022-11-15T10:54:13;9.50;99.90
16838;DHT22;19510;54.486;9.046;2022-11-15T10:56:42;9.50;99.90
16838;DHT22;19510;54.486;9.046;2022-11-15T10:59:16;9.50;99.90
16838;DHT22;19510;54.486;9.046;2022-11-15T11:01:48;9.50;99.90
16838;DHT22;19510;54.486;9.046;2022-11-15T11:04:14;9.50;99.90
16838;DHT22;19510;54.486;9.046;2022-11-15T11:07:08;9.50;99.90
16838;DHT22;19510;54.486;9.046;2022-11-15T11:09:44;9.60;99.90
16838;DHT22;19510;54.486;9.046;2022-11-15T11:12:11;9.60;99.90
16838;DHT22;19510;54.486;9.046;2022-11-15T11:14:38;9.60;99.90
16838;DHT22;19510;54.486;9.046;2022-11-15T11:17:24;9.60;99.90
16838;DHT22;19510;54.486;9.046;2022-11-15T11:20:04;9.60;99.90
16838;DHT22;19510;54.486;9.046;2022-11-15T11:22:46;9.60;99.90
16838;DHT22;19510;54.486;9.046;2022-11-15T11:28:26;9.60;99.90
16838;DHT22;19510;54.486;9.046;2022-11-15T11:36:24;9.60;99.90
16838;DHT22;19510;54.486;9.046;2022-11-15T11:38:58;9.60;99.90
16838;DHT22;19510;54.486;9.046;2022-11-15T11:41:40;9.60;99.90
16838;DHT22;19510;54.486;9.046;2022-11-15T11:44:34;9.60;99.90
16838;DHT22;19510;54.486;9.046;2022-11-15T11:47:19;9.60;99.90
16838;DHT22;19510;54.486;9.046;2022-11-15T11:50:13;9.70;99.90
16838;DHT22;19510;54.486;9.046;2022-11-15T11:53:09;9.70;99.90
16838;DHT22;19510;54.486;9.046;2022-11-15T11:55:43;9.70;99.90
16838;DHT22;19510;54.486;9.046;2022-11-15T12:00:58;9.70;99.90
16838;DHT22;19510;54.486;9.046;2022-11-15T12:03:39;9.70;99.90
16838;DHT22;19510;54.486;9.046;2022-11-15T12:14:48;9.80;99.90
16838;DHT22;19510;54.486;9.046;2022-11-15T12:17:17;9.80;99.90
16838;DHT22;19510;54.486;9.046;2022-11-15T12:19:48;9.80;99.90
16838;DHT22;19510;54.486;9.046;2022-11-15T12:22:23;9.90;99.90
16838;DHT22;19510;54.486;9.046;2022-11-15T12:30:00;10.00;99.90
16838;DHT22;19510;54.486;9.046;2022-11-15T12:32:39;10.00;99.90
16838;DHT22;19510;54.486;9.046;2022-11-15T12:35:42;10.00;99.90
16838;DHT22;19510;54.486;9.046;2022-11-15T12:38:10;10.00;99.90
16838;DHT22;19510;54.486;9.046;2022-11-15T12:41:24;10.10;99.90
16838;DHT22;19510;54.486;9.046;2022-11-15T12:43:40;10.20;99.90
16838;DHT22;19510;54.486;9.046;2022-11-15T12:46:20;10.20;99.90
16838;DHT22;19510;54.486;9.046;2022-11-15T12:48:52;10.30;99.90
16838;DHT22;19510;54.486;9.046;2022-11-15T12:52:03;10.30;99.90
16838;DHT22;19510;54.486;9.046;2022-11-15T12:59:52;10.40;99.90
16838;DHT22;19510;54.486;9.046;2022-11-15T13:02:40;10.40;99.90
16838;DHT22;19510;54.486;9.046;2022-11-15T13:07:58;10.50;99.90
16838;DHT22;19510;54.486;9.046;2022-11-15T13:13:01;10.50;99.90
16838;DHT22;19510;54.486;9.046;2022-11-15T13:15:56;10.50;99.90
16838;DHT22;19510;54.486;9.046;2022-11-15T13:20:52;10.60;99.90
16838;DHT22;19510;54.486;9.046;2022-11-15T13:23:18;10.60;99.90
16838;DHT22;19510;54.486;9.046;2022-11-15T13:28:36;10.70;99.90
16838;DHT22;19510;54.486;9.046;2022-11-15T13:31:24;10.80;99.90
16838;DHT22;19510;54.486;9.046;2022-11-15T13:33:51;10.70;99.90
16838;DHT22;19510;54.486;9.046;2022-11-15T13:36:22;10.80;99.90
16838;DHT22;19510;54.486;9.046;2022-11-15T13:39:02;10.80;99.90
16838;DHT22;19510;54.486;9.046;2022-11-15T13:41:31;10.80;99.90
16838;DHT22;19510;54.486;9.046;2022-11-15T13:43:57;10.80;99.90
16838;DHT22;19510;54.486;9.046;2022-11-15T13:46:33;10.80;99.90
16838;DHT22;19510;54.486;9.046;2022-11-15T13:49:08;10.80;99.90
16838;DHT22;19510;54.486;9.046;2022-11-15T13:51:46;10.80;99.90
16838;DHT22;19510;54.486;9.046;2022-11-15T13:59:34;10.70;99.90
16838;DHT22;19510;54.486;9.046;2022-11-15T14:02:12;10.70;99.90
16838;DHT22;19510;54.486;9.046;2022-11-15T14:04:49;10.60;99.90
16838;DHT22;19510;54.486;9.046;2022-11-15T14:07:21;10.60;99.90
16838;DHT22;19510;54.486;9.046;2022-11-15T14:09:49;10.60;99.90
16838;DHT22;19510;54.486;9.046;2022-11-15T14:19:02;10.60;99.90
16838;DHT22;19510;54.486;9.046;2022-11-15T14:25:03;10.60;99.90
16838;DHT22;19510;54.486;9.046;2022-11-15T14:27:32;10.60;99.90
16838;DHT22;19510;54.486;9.046;2022-11-15T14:30:01;10.50;99.90
16838;DHT22;19510;54.486;9.046;2022-11-15T14:32:29;10.50;99.90
16838;DHT22;19510;54.486;9.046;2022-11-15T14:35:00;10.50;99.90
16838;DHT22;19510;54.486;9.046;2022-11-15T14:37:33;10.50;99.90
16838;DHT22;19510;54.486;9.046;2022-11-15T14:40:04;10.50;99.90
16838;DHT22;19510;54.486;9.046;2022-11-15T14:42:30;10.50;99.90
16838;DHT22;19510;54.486;9.046;2022-11-15T14:44:58;10.50;99.90
16838;DHT22;19510;54.486;9.046;2022-11-15T14:47:23;10.50;99.90
16838;DHT22;19510;54.486;9.046;2022-11-15T14:49:49;10.50;99.90
16838;DHT22;19510;54.486;9.046;2022-11-15T14:52:28;10.50;99.90
16838;DHT22;19510;54.486;9.046;2022-11-15T14:54:55;10.50;99.90
16838;DHT22;19510;54.486;9.046;2022-11-15T14:57:22;10.50;99.90
16838;DHT22;19510;54.486;9.046;2022-11-15T14:59:47;10.50;99.90
16838;DHT22;19510;54.486;9.046;2022-11-15T15:02:24;10.50;99.90
16838;DHT22;19510;54.486;9.046;2022-11-15T15:04:53;10.50;99.90
16838;DHT22;19510;54.486;9.046;2022-11-15T15:07:19;10.50;99.90
16838;DHT22;19510;54.486;9.046;2022-11-15T15:09:45;10.50;99.90
16838;DHT22;19510;54.486;9.046;2022-11-15T15:12:30;10.50;99.90
16838;DHT22;19510;54.486;9.046;2022-11-15T15:14:56;10.50;99.90
16838;DHT22;19510;54.486;9.046;2022-11-15T15:17:21;10.50;99.90
16838;DHT22;19510;54.486;9.046;2022-11-15T15:19:47;10.50;99.90
16838;DHT22;19510;54.486;9.046;2022-11-15T15:22:15;10.50;99.90
16838;DHT22;19510;54.486;9.046;2022-11-15T15:24:44;10.50;99.90
16838;DHT22;19510;54.486;9.046;2022-11-15T15:27:11;10.50;99.90
16838;DHT22;19510;54.486;9.046;2022-11-15T15:29:37;10.50;99.90
16838;DHT22;19510;54.486;9.046;2022-11-15T15:32:03;10.50;99.90
16838;DHT22;19510;54.486;9.046;2022-11-15T15:34:29;10.50;99.90
16838;DHT22;19510;54.486;9.046;2022-11-15T15:39:42;10.50;99.90
16838;DHT22;19510;54.486;9.046;2022-11-15T15:42:08;10.50;99.90
16838;DHT22;19510;54.486;9.046;2022-11-15T15:44:34;10.50;99.90
16838;DHT22;19510;54.486;9.046;2022-11-15T15:46:59;10.50;99.90
16838;DHT22;19510;54.486;9.046;2022-11-15T15:49:25;10.50;99.90
16838;DHT22;19510;54.486;9.046;2022-11-15T15:51:51;10.50;99.90
16838;DHT22;19510;54.486;9.046;2022-11-15T15:54:17;10.50;99.90
16838;DHT22;19510;54.486;9.046;2022-11-15T15:56:42;10.50;99.90
16838;DHT22;19510;54.486;9.046;2022-11-15T15:59:08;10.50;99.90
16838;DHT22;19510;54.486;9.046;2022-11-15T16:01:34;10.50;99.90
16838;DHT22;19510;54.486;9.046;2022-11-15T16:03:59;10.50;99.90
16838;DHT22;19510;54.486;9.046;2022-11-15T16:06:36;10.40;99.90
16838;DHT22;19510;54.486;9.046;2022-11-15T16:09:03;10.40;99.90
16838;DHT22;19510;54.486;9.046;2022-11-15T16:11:28;10.40;99.90
16838;DHT22;19510;54.486;9.046;2022-11-15T16:13:54;10.40;99.90
16838;DHT22;19510;54.486;9.046;2022-11-15T16:16:21;10.50;99.90
16838;DHT22;19510;54.486;9.046;2022-11-15T16:18:47;10.40;99.90
16838;DHT22;19510;54.486;9.046;2022-11-15T16:21:13;10.40;99.90
16838;DHT22;19510;54.486;9.046;2022-11-15T16:23:41;10.40;99.90
16838;DHT22;19510;54.486;9.046;2022-11-15T16:26:22;10.40;99.90
16838;DHT22;19510;54.486;9.046;2022-11-15T16:28:49;10.40;99.90
16838;DHT22;19510;54.486;9.046;2022-11-15T16:31:15;10.40;99.90
16838;DHT22;19510;54.486;9.046;2022-11-15T16:33:44;10.40;99.90
16838;DHT22;19510;54.486;9.046;2022-11-15T16:36:24;10.30;99.90
16838;DHT22;19510;54.486;9.046;2022-11-15T16:38:51;10.30;99.90
16838;DHT22;19510;54.486;9.046;2022-11-15T16:41:17;10.30;99.90
16838;DHT22;19510;54.486;9.046;2022-11-15T16:43:45;10.30;99.90
16838;DHT22;19510;54.486;9.046;2022-11-15T16:46:16;10.20;99.90
16838;DHT22;19510;54.486;9.046;2022-11-15T16:48:42;10.20;99.90
16838;DHT22;19510;54.486;9.046;2022-11-15T16:51:08;10.20;99.90
16838;DHT22;19510;54.486;9.046;2022-11-15T16:53:35;10.20;99.90
16838;DHT22;19510;54.486;9.046;2022-11-15T16:56:00;10.20;99.90
16838;DHT22;19510;54.486;9.046;2022-11-15T16:58:26;10.20;99.90
16838;DHT22;19510;54.486;9.046;2022-11-15T17:00:54;10.20;99.90
16838;DHT22;19510;54.486;9.046;2022-11-15T17:03:21;10.10;99.90
16838;DHT22;19510;54.486;9.046;2022-11-15T17:05:47;10.10;99.90
16838;DHT22;19510;54.486;9.046;2022-11-15T17:08:13;10.10;99.90
16838;DHT22;19510;54.486;9.046;2022-11-15T17:10:39;10.10;99.90
16838;DHT22;19510;54.486;9.046;2022-11-15T17:13:07;10.10;99.90
16838;DHT22;19510;54.486;9.046;2022-11-15T17:15:32;10.10;99.90
16838;DHT22;19510;54.486;9.046;2022-11-15T17:18:01;10.10;99.90
16838;DHT22;19510;54.486;9.046;2022-11-15T17:20:26;10.10;99.90
16838;DHT22;19510;54.486;9.046;2022-11-15T17:22:52;10.10;99.90
16838;DHT22;19510;54.486;9.046;2022-11-15T17:25:18;10.10;99.90
16838;DHT22;19510;54.486;9.046;2022-11-15T17:27:44;10.10;99.90
16838;DHT22;19510;54.486;9.046;2022-11-15T17:30:12;10.10;99.90
16838;DHT22;19510;54.486;9.046;2022-11-15T17:32:40;10.10;99.90
16838;DHT22;19510;54.486;9.046;2022-11-15T17:35:06;10.10;99.90
16838;DHT22;19510;54.486;9.046;2022-11-15T17:37:36;10.00;99.90
16838;DHT22;19510;54.486;9.046;2022-11-15T17:40:02;10.00;99.90
16838;DHT22;19510;54.486;9.046;2022-11-15T17:42:29;10.00;99.90
16838;DHT22;19510;54.486;9.046;2022-11-15T17:44:54;10.00;99.90
16838;DHT22;19510;54.486;9.046;2022-11-15T17:47:20;10.00;99.90
16838;DHT22;19510;54.486;9.046;2022-11-15T17:49:46;10.00;99.90
16838;DHT22;19510;54.486;9.046;2022-11-15T17:52:12;9.90;99.90
16838;DHT22;19510;54.486;9.046;2022-11-15T17:54:37;9.90;99.90
16838;DHT22;19510;54.486;9.046;2022-11-15T17:57:03;9.90;99.90
16838;DHT22;19510;54.486;9.046;2022-11-15T17:59:29;9.90;99.90
16838;DHT22;19510;54.486;9.046;2022-11-15T18:01:57;9.90;99.90
16838;DHT22;19510;54.486;9.046;2022-11-15T18:04:22;9.90;99.90
16838;DHT22;19510;54.486;9.046;2022-11-15T18:06:53;9.90;99.90
16838;DHT22;19510;54.486;9.046;2022-11-15T18:09:19;9.90;99.90
16838;DHT22;19510;54.486;9.046;2022-11-15T18:11:46;9.90;99.90
16838;DHT22;19510;54.486;9.046;2022-11-15T18:14:16;9.90;99.90
16838;DHT22;19510;54.486;9.046;2022-11-15T18:16:42;9.90;99.90
16838;DHT22;19510;54.486;9.046;2022-11-15T18:19:10;9.90;99.90
16838;DHT22;19510;54.486;9.046;2022-11-15T18:21:39;9.90;99.90
16838;DHT22;19510;54.486;9.046;2022-11-15T18:24:31;9.90;99.90
16838;DHT22;19510;54.486;9.046;2022-11-15T18:26:58;9.90;99.90
16838;DHT22;19510;54.486;9.046;2022-11-15T18:29:24;9.90;99.90
16838;DHT22;19510;54.486;9.046;2022-11-15T18:31:51;9.90;99.90
16838;DHT22;19510;54.486;9.046;2022-11-15T18:34:24;9.90;99.90
16838;DHT22;19510;54.486;9.046;2022-11-15T18:36:56;9.90;99.90
16838;DHT22;19510;54.486;9.046;2022-11-15T18:39:22;9.90;99.90
16838;DHT22;19510;54.486;9.046;2022-11-15T18:41:48;9.90;99.90
16838;DHT22;19510;54.486;9.046;2022-11-15T18:44:14;9.90;99.90
16838;DHT22;19510;54.486;9.046;2022-11-15T18:46:41;9.90;99.90
16838;DHT22;19510;54.486;9.046;2022-11-15T18:49:10;9.90;99.90
16838;DHT22;19510;54.486;9.046;2022-11-15T18:51:37;9.90;99.90
16838;DHT22;19510;54.486;9.046;2022-11-15T18:54:07;9.90;99.90
16838;DHT22;19510;54.486;9.046;2022-11-15T18:56:34;9.90;99.90
16838;DHT22;19510;54.486;9.046;2022-11-15T18:59:02;9.90;99.90
16838;DHT22;19510;54.486;9.046;2022-11-15T19:01:34;9.80;99.90
16838;DHT22;19510;54.486;9.046;2022-11-15T19:04:10;9.80;99.90
16838;DHT22;19510;54.486;9.046;2022-11-15T19:06:41;9.80;99.90
16838;DHT22;19510;54.486;9.046;2022-11-15T19:09:08;9.80;99.90
16838;DHT22;19510;54.486;9.046;2022-11-15T19:11:37;9.80;99.90
16838;DHT22;19510;54.486;9.046;2022-11-15T19:14:04;9.80;99.90
16838;DHT22;19510;54.486;9.046;2022-11-15T19:16:33;9.80;99.90
16838;DHT22;19510;54.486;9.046;2022-11-15T19:19:03;9.80;99.90
16838;DHT22;19510;54.486;9.046;2022-11-15T19:21:29;9.80;99.90
16838;DHT22;19510;54.486;9.046;2022-11-15T19:23:56;9.80;99.90
16838;DHT22;19510;54.486;9.046;2022-11-15T19:26:23;9.80;99.90
16838;DHT22;19510;54.486;9.046;2022-11-15T19:28:54;9.80;99.90
16838;DHT22;19510;54.486;9.046;2022-11-15T19:31:21;9.80;99.90
16838;DHT22;19510;54.486;9.046;2022-11-15T19:33:48;9.70;99.90
16838;DHT22;19510;54.486;9.046;2022-11-15T19:36:23;9.70;99.90
16838;DHT22;19510;54.486;9.046;2022-11-15T19:38:51;9.70;99.90
16838;DHT22;19510;54.486;9.046;2022-11-15T19:41:19;9.70;99.90
16838;DHT22;19510;54.486;9.046;2022-11-15T19:43:46;9.70;99.90
16838;DHT22;19510;54.486;9.046;2022-11-15T19:46:13;9.70;99.90
16838;DHT22;19510;54.486;9.046;2022-11-15T19:48:41;9.70;99.90
16838;DHT22;19510;54.486;9.046;2022-11-15T19:51:14;9.70;99.90
16838;DHT22;19510;54.486;9.046;2022-11-15T19:53:40;9.70;99.90
16838;DHT22;19510;54.486;9.046;2022-11-15T19:56:09;9.70;99.90
16838;DHT22;19510;54.486;9.046;2022-11-15T19:58:38;9.70;99.90
16838;DHT22;19510;54.486;9.046;2022-11-15T20:01:06;9.70;99.90
16838;DHT22;19510;54.486;9.046;2022-11-15T20:03:33;9.70;99.90
16838;DHT22;19510;54.486;9.046;2022-11-15T20:06:07;9.70;99.90
16838;DHT22;19510;54.486;9.046;2022-11-15T20:08:34;9.70;99.90
16838;DHT22;19510;54.486;9.046;2022-11-15T20:11:00;9.70;99.90
16838;DHT22;19510;54.486;9.046;2022-11-15T20:13:26;9.70;99.90
16838;DHT22;19510;54.486;9.046;2022-11-15T20:15:53;9.70;99.90
16838;DHT22;19510;54.486;9.046;2022-11-15T20:18:20;9.70;99.90
16838;DHT22;19510;54.486;9.046;2022-11-15T20:20:47;9.70;99.90
16838;DHT22;19510;54.486;9.046;2022-11-15T20:23:13;9.70;99.90
16838;DHT22;19510;54.486;9.046;2022-11-15T20:25:39;9.70;99.90
16838;DHT22;19510;54.486;9.046;2022-11-15T20:28:07;9.60;99.90
16838;DHT22;19510;54.486;9.046;2022-11-15T20:30:35;9.60;99.90
16838;DHT22;19510;54.486;9.046;2022-11-15T20:33:01;9.70;99.90
16838;DHT22;19510;54.486;9.046;2022-11-15T20:35:27;9.70;99.90
16838;DHT22;19510;54.486;9.046;2022-11-15T20:37:52;9.70;99.90
16838;DHT22;19510;54.486;9.046;2022-11-15T20:40:18;9.70;99.90
16838;DHT22;19510;54.486;9.046;2022-11-15T20:42:45;9.70;99.90
16838;DHT22;19510;54.486;9.046;2022-11-15T20:45:12;9.70;99.90
16838;DHT22;19510;54.486;9.046;2022-11-15T20:47:37;9.70;99.90
16838;DHT22;19510;54.486;9.046;2022-11-15T20:50:03;9.70;99.90
16838;DHT22;19510;54.486;9.046;2022-11-15T20:52:29;9.70;99.90
16838;DHT22;19510;54.486;9.046;2022-11-15T20:54:55;9.70;99.90
16838;DHT22;19510;54.486;9.046;2022-11-15T20:57:20;9.70;99.90
16838;DHT22;19510;54.486;9.046;2022-11-15T20:59:46;9.70;99.90
16838;DHT22;19510;54.486;9.046;2022-11-15T21:02:17;9.70;99.90
16838;DHT22;19510;54.486;9.046;2022-11-15T21:04:42;9.70;99.90
16838;DHT22;19510;54.486;9.046;2022-11-15T21:07:08;9.70;99.90
16838;DHT22;19510;54.486;9.046;2022-11-15T21:09:36;9.70;99.90
16838;DHT22;19510;54.486;9.046;2022-11-15T21:12:20;9.70;99.90
16838;DHT22;19510;54.486;9.046;2022-11-15T21:14:46;9.70;99.90
16838;DHT22;19510;54.486;9.046;2022-11-15T21:17:14;9.70;99.90
16838;DHT22;19510;54.486;9.046;2022-11-15T21:19:41;9.80;99.90
16838;DHT22;19510;54.486;9.046;2022-11-15T21:22:09;9.70;99.90
16838;DHT22;19510;54.486;9.046;2022-11-15T21:24:36;9.80;99.90
16838;DHT22;19510;54.486;9.046;2022-11-15T21:27:04;9.80;99.90
16838;DHT22;19510;54.486;9.046;2022-11-15T21:29:30;9.80;99.90
16838;DHT22;19510;54.486;9.046;2022-11-15T21:32:07;9.80;99.90
16838;DHT22;19510;54.486;9.046;2022-11-15T21:34:36;9.80;99.90
16838;DHT22;19510;54.486;9.046;2022-11-15T21:37:04;9.80;99.90
16838;DHT22;19510;54.486;9.046;2022-11-15T21:39:30;9.80;99.90
16838;DHT22;19510;54.486;9.046;2022-11-15T21:41:55;9.90;99.90
16838;DHT22;19510;54.486;9.046;2022-11-15T21:44:21;9.90;99.90
16838;DHT22;19510;54.486;9.046;2022-11-15T21:46:47;9.90;99.90
16838;DHT22;19510;54.486;9.046;2022-11-15T21:49:13;9.90;99.90
16838;DHT22;19510;54.486;9.046;2022-11-15T21:51:39;9.90;99.90
16838;DHT22;19510;54.486;9.046;2022-11-15T21:54:05;9.90;99.90
16838;DHT22;19510;54.486;9.046;2022-11-15T21:56:31;9.90;99.90
16838;DHT22;19510;54.486;9.046;2022-11-15T21:58:59;9.90;99.90
16838;DHT22;19510;54.486;9.046;2022-11-15T22:01:25;9.90;99.90
16838;DHT22;19510;54.486;9.046;2022-11-15T22:04:10;9.90;99.90
16838;DHT22;19510;54.486;9.046;2022-11-15T22:06:36;9.90;99.90
16838;DHT22;19510;54.486;9.046;2022-11-15T22:09:04;9.90;99.90
16838;DHT22;19510;54.486;9.046;2022-11-15T22:11:30;9.90;99.90
16838;DHT22;19510;54.486;9.046;2022-11-15T22:13:56;9.90;99.90
16838;DHT22;19510;54.486;9.046;2022-11-15T22:16:23;9.90;99.90
16838;DHT22;19510;54.486;9.046;2022-11-15T22:18:48;9.90;99.90
16838;DHT22;19510;54.486;9.046;2022-11-15T22:21:16;9.90;99.90
16838;DHT22;19510;54.486;9.046;2022-11-15T22:23:42;9.90;99.90
16838;DHT22;19510;54.486;9.046;2022-11-15T22:26:13;9.90;99.90
16838;DHT22;19510;54.486;9.046;2022-11-15T22:28:40;9.90;99.90
16838;DHT22;19510;54.486;9.046;2022-11-15T22:31:06;9.90;99.90
16838;DHT22;19510;54.486;9.046;2022-11-15T22:33:33;9.90;99.90
16838;DHT22;19510;54.486;9.046;2022-11-15T22:36:02;9.90;99.90
16838;DHT22;19510;54.486;9.046;2022-11-15T22:38:29;9.90;99.90
16838;DHT22;19510;54.486;9.046;2022-11-15T22:40:55;9.80;99.90
16838;DHT22;19510;54.486;9.046;2022-11-15T22:43:25;9.90;99.90
16838;DHT22;19510;54.486;9.046;2022-11-15T22:45:52;9.90;99.90
